Christian & Alexa — WAA4721 — position and weather

sailwx.info

Track history (hours):
 
Tides and Currents Weather Stations Pressure Air Temp Water Temp Dewpoint Dewpoint Depression Visibility Wind Speed Wind Dir Waves Ship Positions

Christian & Alexa

More information available from US FCC via Universal Licensing System and Coast Guard Vessel Documentation Center.

Last reported at 2014-Jul-16 06:33 UTC. Time now 2014-Jul-24 20:05 UTC.
Position N 39°47' W 074°03'.
Warning: this ship's position is 8 days out of date.

Length 30 m.

Type: Fishing. MMSI: 366939620.

Date/timePositionNaut miles runAvg speedWind from/ knotsBaromVisibWave heightAir tempDewpointWater temp
2014-Jul-16 06:33N 39°47' W 074°03'6 6.4
2014-Jul-16 05:33N 39°41' W 074°02'7 6.6
2014-Jul-16 04:32N 39°34' W 074°02'69 2.7
2014-Jul-15 03:15N 38°25' W 074°11'3 0.1
2014-Jul-14 03:15N 38°22' W 074°13'1 1.0
2014-Jul-14 02:33N 38°23' W 074°13'1 1.1
2014-Jul-14 01:33N 38°24' W 074°14'1 1.1
2014-Jul-14 00:33N 38°23' W 074°13'0 0.3
2014-Jul-13 23:30N 38°23' W 074°13'1 0.5
2014-Jul-13 22:33N 38°23' W 074°14'1 0.7
2014-Jul-13 21:33N 38°23' W 074°14'4 4.3
2014-Jul-13 20:33N 38°24' W 074°08'6 6.2
2014-Jul-13 19:33N 38°27' W 074°01'8 6.2
2014-Jul-13 18:11N 38°30' W 073°51'4 6.1
2014-Jul-13 17:33N 38°32' W 073°47'5 3.5
2014-Jul-13 16:15N 38°34' W 073°42'0 0.2
2014-Jul-13 15:25N 38°34' W 073°42'0 0.2
2014-Jul-13 13:21N 38°34' W 073°42'1 0.8
2014-Jul-13 12:32N 38°33' W 073°42'0 0.3
2014-Jul-13 11:13N 38°33' W 073°41'1 2.2
2014-Jul-13 10:31N 38°34' W 073°43'1 0.4
2014-Jul-13 09:20N 38°34' W 073°42'0 0.1
2014-Jul-13 08:32N 38°34' W 073°42'0 0.1
2014-Jul-13 07:28N 38°34' W 073°42'0 0.4
2014-Jul-13 06:32N 38°34' W 073°42'0 0.4
2014-Jul-13 05:33N 38°34' W 073°42'1 0.7
2014-Jul-13 04:27N 38°34' W 073°41'0 0.1
2014-Jul-13 02:32N 38°34' W 073°41'0 0.3
2014-Jul-13 01:32N 38°34' W 073°41'2 1.9
2014-Jul-13 00:33N 38°35' W 073°42'0 0.4
2014-Jul-12 23:31N 38°35' W 073°41'2 0.7
2014-Jul-12 21:27N 38°34' W 073°41'0 0.2
2014-Jul-12 20:33N 38°34' W 073°41'1 0.3
2014-Jul-12 18:12N 38°34' W 073°42'7 1.7
2014-Jul-12 14:10N 38°40' W 073°39'8 7.9
2014-Jul-12 13:12N 38°47' W 073°34'0 0.7
2014-Jul-12 12:31N 38°47' W 073°34'0 0.2
2014-Jul-12 11:31N 38°47' W 073°33'0 0.1
2014-Jul-12 09:17N 38°47' W 073°33'0 0.3
2014-Jul-12 08:29N 38°48' W 073°34'1 1.0
2014-Jul-12 07:30N 38°48' W 073°32'1 0.1
2014-Jul-12 00:24N 38°48' W 073°33'1 0.7
2014-Jul-11 23:33N 38°47' W 073°34'1 0.7
2014-Jul-11 22:33N 38°48' W 073°33'0 0.0
2014-Jul-09 23:11N 38°47' W 073°34'57 2.7
2014-Jul-09 02:17N 39°42' W 073°54'  
Track history (hours):
 
Tides and Currents Weather Stations Pressure Air Temp Water Temp Dewpoint Dewpoint Depression Visibility Wind Speed Wind Dir Waves Ship Positions

Christian & Alexa

More information available from US FCC via Universal Licensing System and Coast Guard Vessel Documentation Center.

Last reported at 2014-Jul-16 06:33 UTC. Time now 2014-Jul-24 20:05 UTC.
Position N 39°47' W 074°03'.
Warning: this ship's position is 8 days out of date.

Length 30 m.

Type: Fishing. MMSI: 366939620.

Date/timePositionNaut miles runAvg speedWind from/ knotsBaromVisibWave heightAir tempDewpointWater temp
2014-Jul-16 06:33N 39°47' W 074°03'6 6.4
2014-Jul-16 05:33N 39°41' W 074°02'7 6.6
2014-Jul-16 04:32N 39°34' W 074°02'69 2.7
2014-Jul-15 03:15N 38°25' W 074°11'3 0.1
2014-Jul-14 03:15N 38°22' W 074°13'1 1.0
2014-Jul-14 02:33N 38°23' W 074°13'1 1.1
2014-Jul-14 01:33N 38°24' W 074°14'1 1.1
2014-Jul-14 00:33N 38°23' W 074°13'0 0.3
2014-Jul-13 23:30N 38°23' W 074°13'1 0.5
2014-Jul-13 22:33N 38°23' W 074°14'1 0.7
2014-Jul-13 21:33N 38°23' W 074°14'4 4.3
2014-Jul-13 20:33N 38°24' W 074°08'6 6.2
2014-Jul-13 19:33N 38°27' W 074°01'8 6.2
2014-Jul-13 18:11N 38°30' W 073°51'4 6.1
2014-Jul-13 17:33N 38°32' W 073°47'5 3.5
2014-Jul-13 16:15N 38°34' W 073°42'0 0.2
2014-Jul-13 15:25N 38°34' W 073°42'0 0.2
2014-Jul-13 13:21N 38°34' W 073°42'1 0.8
2014-Jul-13 12:32N 38°33' W 073°42'0 0.3
2014-Jul-13 11:13N 38°33' W 073°41'1 2.2
2014-Jul-13 10:31N 38°34' W 073°43'1 0.4
2014-Jul-13 09:20N 38°34' W 073°42'0 0.1
2014-Jul-13 08:32N 38°34' W 073°42'0 0.1
2014-Jul-13 07:28N 38°34' W 073°42'0 0.4
2014-Jul-13 06:32N 38°34' W 073°42'0 0.4
2014-Jul-13 05:33N 38°34' W 073°42'1 0.7
2014-Jul-13 04:27N 38°34' W 073°41'0 0.1
2014-Jul-13 02:32N 38°34' W 073°41'0 0.3
2014-Jul-13 01:32N 38°34' W 073°41'2 1.9
2014-Jul-13 00:33N 38°35' W 073°42'0 0.4
2014-Jul-12 23:31N 38°35' W 073°41'2 0.7
2014-Jul-12 21:27N 38°34' W 073°41'0 0.2
2014-Jul-12 20:33N 38°34' W 073°41'1 0.3
2014-Jul-12 18:12N 38°34' W 073°42'7 1.7
2014-Jul-12 14:10N 38°40' W 073°39'8 7.9
2014-Jul-12 13:12N 38°47' W 073°34'0 0.7
2014-Jul-12 12:31N 38°47' W 073°34'0 0.2
2014-Jul-12 11:31N 38°47' W 073°33'0 0.1
2014-Jul-12 09:17N 38°47' W 073°33'0 0.3
2014-Jul-12 08:29N 38°48' W 073°34'1 1.0
2014-Jul-12 07:30N 38°48' W 073°32'1 0.1
2014-Jul-12 00:24N 38°48' W 073°33'1 0.7
2014-Jul-11 23:33N 38°47' W 073°34'1 0.7
2014-Jul-11 22:33N 38°48' W 073°33'0 0.0
2014-Jul-09 23:11N 38°47' W 073°34'57 2.7
2014-Jul-09 02:17N 39°42' W 073°54'  

Dump ship's entire track history